sensor_id;sensor_type;location;lat;lon;timestamp;temperature;humidity
45807;DHT22;31507;51.494;7.518;2023-06-22T00:00:59;20.10;99.90
45807;DHT22;31507;51.494;7.518;2023-06-22T00:03:28;20.10;99.90
45807;DHT22;31507;51.494;7.518;2023-06-22T00:05:56;20.10;99.90
45807;DHT22;31507;51.494;7.518;2023-06-22T00:08:22;20.10;99.90
45807;DHT22;31507;51.494;7.518;2023-06-22T00:10:48;20.10;99.90
45807;DHT22;31507;51.494;7.518;2023-06-22T00:13:15;20.10;99.90
45807;DHT22;31507;51.494;7.518;2023-06-22T00:15:43;20.10;99.90
45807;DHT22;31507;51.494;7.518;2023-06-22T00:18:10;20.10;99.90
45807;DHT22;31507;51.494;7.518;2023-06-22T00:20:36;20.00;99.90
45807;DHT22;31507;51.494;7.518;2023-06-22T00:23:03;20.00;99.90
45807;DHT22;31507;51.494;7.518;2023-06-22T00:25:38;19.90;99.90
45807;DHT22;31507;51.494;7.518;2023-06-22T00:28:07;19.90;99.90
45807;DHT22;31507;51.494;7.518;2023-06-22T00:30:33;19.80;99.90
45807;DHT22;31507;51.494;7.518;2023-06-22T00:33:00;19.70;99.90
45807;DHT22;31507;51.494;7.518;2023-06-22T00:35:26;19.70;99.90
45807;DHT22;31507;51.494;7.518;2023-06-22T00:37:55;19.60;99.90
45807;DHT22;31507;51.494;7.518;2023-06-22T00:40:26;19.60;99.90
45807;DHT22;31507;51.494;7.518;2023-06-22T00:42:52;19.50;99.90
45807;DHT22;31507;51.494;7.518;2023-06-22T00:45:18;19.40;99.90
45807;DHT22;31507;51.494;7.518;2023-06-22T00:47:44;19.40;99.90
45807;DHT22;31507;51.494;7.518;2023-06-22T00:50:15;19.30;99.90
45807;DHT22;31507;51.494;7.518;2023-06-22T00:52:44;19.20;99.90
45807;DHT22;31507;51.494;7.518;2023-06-22T00:55:11;19.20;99.90
45807;DHT22;31507;51.494;7.518;2023-06-22T00:57:37;19.20;99.90
45807;DHT22;31507;51.494;7.518;2023-06-22T01:00:03;19.10;99.90
45807;DHT22;31507;51.494;7.518;2023-06-22T01:02:34;19.10;99.90
45807;DHT22;31507;51.494;7.518;2023-06-22T01:05:03;19.10;99.90
45807;DHT22;31507;51.494;7.518;2023-06-22T01:10:43;19.00;99.90
45807;DHT22;31507;51.494;7.518;2023-06-22T01:18:24;18.90;99.90
45807;DHT22;31507;51.494;7.518;2023-06-22T01:20:54;18.90;99.90
45807;DHT22;31507;51.494;7.518;2023-06-22T01:23:27;18.90;99.90
45807;DHT22;31507;51.494;7.518;2023-06-22T01:26:18;18.90;99.90
45807;DHT22;31507;51.494;7.518;2023-06-22T01:31:17;18.90;99.90
45807;DHT22;31507;51.494;7.518;2023-06-22T01:33:46;18.90;99.90
45807;DHT22;31507;51.494;7.518;2023-06-22T01:36:14;18.90;99.90
45807;DHT22;31507;51.494;7.518;2023-06-22T01:38:40;18.90;99.90
45807;DHT22;31507;51.494;7.518;2023-06-22T01:41:07;18.80;99.90
45807;DHT22;31507;51.494;7.518;2023-06-22T01:43:33;18.80;99.90
45807;DHT22;31507;51.494;7.518;2023-06-22T01:46:01;18.80;99.90
45807;DHT22;31507;51.494;7.518;2023-06-22T01:48:27;18.80;99.90
45807;DHT22;31507;51.494;7.518;2023-06-22T01:50:54;18.80;99.90
45807;DHT22;31507;51.494;7.518;2023-06-22T01:53:24;18.80;99.90
45807;DHT22;31507;51.494;7.518;2023-06-22T01:55:49;18.80;99.90
45807;DHT22;31507;51.494;7.518;2023-06-22T01:58:15;18.80;99.90
45807;DHT22;31507;51.494;7.518;2023-06-22T02:00:47;18.80;99.90
45807;DHT22;31507;51.494;7.518;2023-06-22T02:03:19;18.80;99.90
45807;DHT22;31507;51.494;7.518;2023-06-22T02:05:56;18.80;99.90
45807;DHT22;31507;51.494;7.518;2023-06-22T02:08:27;18.70;99.90
45807;DHT22;31507;51.494;7.518;2023-06-22T02:10:56;18.70;99.90
45807;DHT22;31507;51.494;7.518;2023-06-22T02:13:24;18.70;99.90
45807;DHT22;31507;51.494;7.518;2023-06-22T02:15:50;18.70;99.90
45807;DHT22;31507;51.494;7.518;2023-06-22T02:18:16;18.70;99.90
45807;DHT22;31507;51.494;7.518;2023-06-22T02:20:42;18.70;99.90
45807;DHT22;31507;51.494;7.518;2023-06-22T02:23:08;18.70;99.90
45807;DHT22;31507;51.494;7.518;2023-06-22T02:25:34;18.70;99.90
45807;DHT22;31507;51.494;7.518;2023-06-22T02:28:01;18.60;99.90
45807;DHT22;31507;51.494;7.518;2023-06-22T02:30:27;18.70;99.90
45807;DHT22;31507;51.494;7.518;2023-06-22T02:32:52;18.60;99.90
45807;DHT22;31507;51.494;7.518;2023-06-22T02:35:28;18.60;99.90
45807;DHT22;31507;51.494;7.518;2023-06-22T02:38:00;18.50;99.90
45807;DHT22;31507;51.494;7.518;2023-06-22T02:40:26;18.40;99.90
45807;DHT22;31507;51.494;7.518;2023-06-22T02:42:52;18.50;99.90
45807;DHT22;31507;51.494;7.518;2023-06-22T02:45:18;18.40;99.90
45807;DHT22;31507;51.494;7.518;2023-06-22T02:47:44;18.40;99.90
45807;DHT22;31507;51.494;7.518;2023-06-22T02:50:09;18.30;99.90
45807;DHT22;31507;51.494;7.518;2023-06-22T02:52:35;18.30;99.90
45807;DHT22;31507;51.494;7.518;2023-06-22T02:55:01;18.30;99.90
45807;DHT22;31507;51.494;7.518;2023-06-22T02:57:26;18.20;99.90
45807;DHT22;31507;51.494;7.518;2023-06-22T02:59:52;18.20;99.90
45807;DHT22;31507;51.494;7.518;2023-06-22T03:02:18;18.20;99.90
45807;DHT22;31507;51.494;7.518;2023-06-22T03:04:46;18.10;99.90
45807;DHT22;31507;51.494;7.518;2023-06-22T03:07:14;18.10;99.90
45807;DHT22;31507;51.494;7.518;2023-06-22T03:09:40;18.00;99.90
45807;DHT22;31507;51.494;7.518;2023-06-22T03:12:08;18.00;99.90
45807;DHT22;31507;51.494;7.518;2023-06-22T03:14:34;18.00;99.90
45807;DHT22;31507;51.494;7.518;2023-06-22T03:16:59;18.00;99.90
45807;DHT22;31507;51.494;7.518;2023-06-22T03:19:29;18.00;99.90
45807;DHT22;31507;51.494;7.518;2023-06-22T03:21:58;18.00;99.90
45807;DHT22;31507;51.494;7.518;2023-06-22T03:24:24;18.00;99.90
45807;DHT22;31507;51.494;7.518;2023-06-22T03:26:50;17.90;99.90
45807;DHT22;31507;51.494;7.518;2023-06-22T03:29:16;18.00;99.90
45807;DHT22;31507;51.494;7.518;2023-06-22T03:31:41;18.00;99.90
45807;DHT22;31507;51.494;7.518;2023-06-22T03:34:07;18.00;99.90
45807;DHT22;31507;51.494;7.518;2023-06-22T03:36:33;18.00;99.90
45807;DHT22;31507;51.494;7.518;2023-06-22T03:38:58;18.10;99.90
45807;DHT22;31507;51.494;7.518;2023-06-22T03:41:24;18.10;99.90
45807;DHT22;31507;51.494;7.518;2023-06-22T03:43:50;18.20;99.90
45807;DHT22;31507;51.494;7.518;2023-06-22T03:46:16;18.20;99.90
45807;DHT22;31507;51.494;7.518;2023-06-22T03:48:42;18.20;99.90
45807;DHT22;31507;51.494;7.518;2023-06-22T03:51:07;18.30;99.90
45807;DHT22;31507;51.494;7.518;2023-06-22T03:53:33;18.30;99.90
45807;DHT22;31507;51.494;7.518;2023-06-22T03:55:59;18.40;99.90
45807;DHT22;31507;51.494;7.518;2023-06-22T03:58:24;18.40;99.90
45807;DHT22;31507;51.494;7.518;2023-06-22T04:00:51;18.40;99.90
45807;DHT22;31507;51.494;7.518;2023-06-22T04:03:17;18.40;99.90
45807;DHT22;31507;51.494;7.518;2023-06-22T04:05:46;18.40;99.90
45807;DHT22;31507;51.494;7.518;2023-06-22T04:08:13;18.50;99.90
45807;DHT22;31507;51.494;7.518;2023-06-22T04:10:38;18.50;99.90
45807;DHT22;31507;51.494;7.518;2023-06-22T04:13:04;18.60;99.90
45807;DHT22;31507;51.494;7.518;2023-06-22T04:15:30;18.60;99.90
45807;DHT22;31507;51.494;7.518;2023-06-22T04:17:56;18.70;99.90
45807;DHT22;31507;51.494;7.518;2023-06-22T04:20:22;18.70;99.90
45807;DHT22;31507;51.494;7.518;2023-06-22T04:22:51;18.80;99.90
45807;DHT22;31507;51.494;7.518;2023-06-22T04:25:17;18.90;99.90
45807;DHT22;31507;51.494;7.518;2023-06-22T04:27:43;18.90;99.90
45807;DHT22;31507;51.494;7.518;2023-06-22T04:30:09;19.00;99.90
45807;DHT22;31507;51.494;7.518;2023-06-22T04:32:35;19.00;99.90
45807;DHT22;31507;51.494;7.518;2023-06-22T04:35:05;19.10;99.90
45807;DHT22;31507;51.494;7.518;2023-06-22T04:37:32;19.20;99.90
45807;DHT22;31507;51.494;7.518;2023-06-22T04:39:57;19.30;99.90
45807;DHT22;31507;51.494;7.518;2023-06-22T04:42:25;19.40;99.90
45807;DHT22;31507;51.494;7.518;2023-06-22T04:44:51;19.40;99.90
45807;DHT22;31507;51.494;7.518;2023-06-22T04:47:17;19.40;99.90
45807;DHT22;31507;51.494;7.518;2023-06-22T04:49:42;19.50;99.90
45807;DHT22;31507;51.494;7.518;2023-06-22T04:52:11;19.50;99.90
45807;DHT22;31507;51.494;7.518;2023-06-22T04:54:38;19.40;99.90
45807;DHT22;31507;51.494;7.518;2023-06-22T04:57:05;19.40;99.90
45807;DHT22;31507;51.494;7.518;2023-06-22T04:59:35;19.40;99.90
45807;DHT22;31507;51.494;7.518;2023-06-22T05:02:02;19.30;99.90
45807;DHT22;31507;51.494;7.518;2023-06-22T05:04:29;19.30;99.90
45807;DHT22;31507;51.494;7.518;2023-06-22T05:06:57;19.30;99.90
45807;DHT22;31507;51.494;7.518;2023-06-22T05:09:23;19.30;99.90
45807;DHT22;31507;51.494;7.518;2023-06-22T05:11:50;19.30;99.90
45807;DHT22;31507;51.494;7.518;2023-06-22T05:14:15;19.30;99.90
45807;DHT22;31507;51.494;7.518;2023-06-22T05:16:42;19.30;99.90
45807;DHT22;31507;51.494;7.518;2023-06-22T05:19:08;19.30;99.90
45807;DHT22;31507;51.494;7.518;2023-06-22T05:21:34;19.40;99.90
45807;DHT22;31507;51.494;7.518;2023-06-22T05:24:00;19.40;99.90
45807;DHT22;31507;51.494;7.518;2023-06-22T05:26:28;19.40;99.90
45807;DHT22;31507;51.494;7.518;2023-06-22T05:28:54;19.40;99.90
45807;DHT22;31507;51.494;7.518;2023-06-22T05:31:20;19.50;99.90
45807;DHT22;31507;51.494;7.518;2023-06-22T05:33:46;19.50;99.90
45807;DHT22;31507;51.494;7.518;2023-06-22T05:36:13;19.50;99.90
45807;DHT22;31507;51.494;7.518;2023-06-22T05:38:39;19.60;99.90
45807;DHT22;31507;51.494;7.518;2023-06-22T05:41:06;19.60;99.90
45807;DHT22;31507;51.494;7.518;2023-06-22T05:43:34;19.70;99.90
45807;DHT22;31507;51.494;7.518;2023-06-22T05:46:01;19.70;99.90
45807;DHT22;31507;51.494;7.518;2023-06-22T05:48:28;19.70;99.90
45807;DHT22;31507;51.494;7.518;2023-06-22T05:50:54;19.80;99.90
45807;DHT22;31507;51.494;7.518;2023-06-22T05:53:20;19.80;99.90
45807;DHT22;31507;51.494;7.518;2023-06-22T05:55:46;19.80;99.90
45807;DHT22;31507;51.494;7.518;2023-06-22T05:58:12;19.80;99.90
45807;DHT22;31507;51.494;7.518;2023-06-22T06:00:39;19.90;99.90
45807;DHT22;31507;51.494;7.518;2023-06-22T06:03:06;19.90;99.90
45807;DHT22;31507;51.494;7.518;2023-06-22T06:05:33;19.90;99.90
45807;DHT22;31507;51.494;7.518;2023-06-22T06:08:01;19.90;99.90
45807;DHT22;31507;51.494;7.518;2023-06-22T06:10:28;20.00;99.90
45807;DHT22;31507;51.494;7.518;2023-06-22T06:12:55;20.00;99.90
45807;DHT22;31507;51.494;7.518;2023-06-22T06:15:22;20.00;99.90
45807;DHT22;31507;51.494;7.518;2023-06-22T06:17:52;20.00;99.90
45807;DHT22;31507;51.494;7.518;2023-06-22T06:20:19;20.10;99.90
45807;DHT22;31507;51.494;7.518;2023-06-22T06:22:45;20.10;99.90
45807;DHT22;31507;51.494;7.518;2023-06-22T06:25:11;20.10;99.90
45807;DHT22;31507;51.494;7.518;2023-06-22T06:27:45;20.20;99.90
45807;DHT22;31507;51.494;7.518;2023-06-22T06:30:11;20.20;99.90
45807;DHT22;31507;51.494;7.518;2023-06-22T06:32:38;20.20;99.90
45807;DHT22;31507;51.494;7.518;2023-06-22T06:35:07;20.30;99.90
45807;DHT22;31507;51.494;7.518;2023-06-22T06:37:36;20.30;99.90
45807;DHT22;31507;51.494;7.518;2023-06-22T06:40:03;20.30;99.90
45807;DHT22;31507;51.494;7.518;2023-06-22T06:42:30;20.40;99.90
45807;DHT22;31507;51.494;7.518;2023-06-22T06:44:57;20.50;99.90
45807;DHT22;31507;51.494;7.518;2023-06-22T06:47:22;20.60;99.90
45807;DHT22;31507;51.494;7.518;2023-06-22T06:49:48;20.80;99.90
45807;DHT22;31507;51.494;7.518;2023-06-22T06:52:14;20.90;99.90
45807;DHT22;31507;51.494;7.518;2023-06-22T06:54:39;21.10;99.90
45807;DHT22;31507;51.494;7.518;2023-06-22T06:57:07;21.30;99.90
45807;DHT22;31507;51.494;7.518;2023-06-22T06:59:36;21.30;99.90
45807;DHT22;31507;51.494;7.518;2023-06-22T07:02:01;21.50;99.90
45807;DHT22;31507;51.494;7.518;2023-06-22T07:04:27;21.60;99.90
45807;DHT22;31507;51.494;7.518;2023-06-22T07:06:52;21.80;99.90
45807;DHT22;31507;51.494;7.518;2023-06-22T07:09:18;22.00;99.90
45807;DHT22;31507;51.494;7.518;2023-06-22T07:11:44;22.00;99.90
45807;DHT22;31507;51.494;7.518;2023-06-22T07:14:09;21.90;99.90
45807;DHT22;31507;51.494;7.518;2023-06-22T07:16:35;21.80;99.90
45807;DHT22;31507;51.494;7.518;2023-06-22T07:19:00;21.80;99.90
45807;DHT22;31507;51.494;7.518;2023-06-22T07:21:26;21.70;99.90
45807;DHT22;31507;51.494;7.518;2023-06-22T07:23:52;21.70;99.90
45807;DHT22;31507;51.494;7.518;2023-06-22T07:26:18;21.60;99.90
45807;DHT22;31507;51.494;7.518;2023-06-22T07:28:43;21.50;99.90
45807;DHT22;31507;51.494;7.518;2023-06-22T07:31:09;21.40;99.90
45807;DHT22;31507;51.494;7.518;2023-06-22T07:33:35;21.30;99.90
45807;DHT22;31507;51.494;7.518;2023-06-22T07:36:00;21.10;99.90
45807;DHT22;31507;51.494;7.518;2023-06-22T07:38:28;21.00;99.90
45807;DHT22;31507;51.494;7.518;2023-06-22T07:40:54;20.90;99.90
45807;DHT22;31507;51.494;7.518;2023-06-22T07:43:21;20.90;99.90
45807;DHT22;31507;51.494;7.518;2023-06-22T07:45:50;20.80;99.90
45807;DHT22;31507;51.494;7.518;2023-06-22T07:48:22;20.80;99.90
45807;DHT22;31507;51.494;7.518;2023-06-22T07:50:49;20.90;99.90
45807;DHT22;31507;51.494;7.518;2023-06-22T07:53:14;20.90;99.90
45807;DHT22;31507;51.494;7.518;2023-06-22T07:55:40;21.20;99.90
45807;DHT22;31507;51.494;7.518;2023-06-22T07:58:06;21.40;99.90
45807;DHT22;31507;51.494;7.518;2023-06-22T08:00:34;21.60;99.90
45807;DHT22;31507;51.494;7.518;2023-06-22T08:03:00;21.70;99.90
45807;DHT22;31507;51.494;7.518;2023-06-22T08:05:28;21.60;99.90
45807;DHT22;31507;51.494;7.518;2023-06-22T08:07:55;21.50;99.90
45807;DHT22;31507;51.494;7.518;2023-06-22T08:10:21;21.60;99.90
45807;DHT22;31507;51.494;7.518;2023-06-22T08:12:46;21.70;99.90
45807;DHT22;31507;51.494;7.518;2023-06-22T08:15:12;21.80;99.90
45807;DHT22;31507;51.494;7.518;2023-06-22T08:17:38;21.90;99.90
45807;DHT22;31507;51.494;7.518;2023-06-22T08:20:05;22.10;99.90
45807;DHT22;31507;51.494;7.518;2023-06-22T08:22:37;22.30;99.90
45807;DHT22;31507;51.494;7.518;2023-06-22T08:25:03;22.50;99.90
45807;DHT22;31507;51.494;7.518;2023-06-22T08:27:30;22.80;99.90
45807;DHT22;31507;51.494;7.518;2023-06-22T08:29:57;23.30;99.90
45807;DHT22;31507;51.494;7.518;2023-06-22T08:32:25;23.70;99.90
45807;DHT22;31507;51.494;7.518;2023-06-22T08:34:55;23.70;99.90
45807;DHT22;31507;51.494;7.518;2023-06-22T08:37:21;23.90;99.90
45807;DHT22;31507;51.494;7.518;2023-06-22T08:39:53;24.30;99.90
45807;DHT22;31507;51.494;7.518;2023-06-22T08:42:19;24.50;99.90
45807;DHT22;31507;51.494;7.518;2023-06-22T08:44:44;25.00;99.90
45807;DHT22;31507;51.494;7.518;2023-06-22T08:47:10;25.30;99.90
45807;DHT22;31507;51.494;7.518;2023-06-22T08:49:36;25.40;99.90
45807;DHT22;31507;51.494;7.518;2023-06-22T08:52:01;25.50;99.90
45807;DHT22;31507;51.494;7.518;2023-06-22T08:54:27;25.50;99.90
45807;DHT22;31507;51.494;7.518;2023-06-22T08:56:52;25.50;99.90
45807;DHT22;31507;51.494;7.518;2023-06-22T08:59:18;25.40;99.90
45807;DHT22;31507;51.494;7.518;2023-06-22T09:01:44;25.40;99.90
45807;DHT22;31507;51.494;7.518;2023-06-22T09:04:11;25.80;99.90
45807;DHT22;31507;51.494;7.518;2023-06-22T09:06:37;26.40;99.90
45807;DHT22;31507;51.494;7.518;2023-06-22T09:09:06;26.80;99.90
45807;DHT22;31507;51.494;7.518;2023-06-22T09:11:32;26.90;99.90
45807;DHT22;31507;51.494;7.518;2023-06-22T09:13:58;27.10;99.90
45807;DHT22;31507;51.494;7.518;2023-06-22T09:16:23;27.00;99.90
45807;DHT22;31507;51.494;7.518;2023-06-22T09:18:49;26.80;99.90
45807;DHT22;31507;51.494;7.518;2023-06-22T09:21:14;27.00;99.90
45807;DHT22;31507;51.494;7.518;2023-06-22T09:23:40;27.10;99.90
45807;DHT22;31507;51.494;7.518;2023-06-22T09:26:06;27.40;99.90
45807;DHT22;31507;51.494;7.518;2023-06-22T09:28:32;27.50;99.90
45807;DHT22;31507;51.494;7.518;2023-06-22T09:30:58;27.90;99.40
45807;DHT22;31507;51.494;7.518;2023-06-22T09:33:25;27.90;98.40
45807;DHT22;31507;51.494;7.518;2023-06-22T09:35:51;27.90;97.90
45807;DHT22;31507;51.494;7.518;2023-06-22T09:38:17;28.00;97.60
45807;DHT22;31507;51.494;7.518;2023-06-22T09:40:42;28.20;97.60
45807;DHT22;31507;51.494;7.518;2023-06-22T09:43:08;28.40;96.70
45807;DHT22;31507;51.494;7.518;2023-06-22T09:45:34;28.40;96.80
45807;DHT22;31507;51.494;7.518;2023-06-22T09:47:59;28.60;96.50
45807;DHT22;31507;51.494;7.518;2023-06-22T09:50:25;28.50;96.40
45807;DHT22;31507;51.494;7.518;2023-06-22T09:52:51;28.40;96.80
45807;DHT22;31507;51.494;7.518;2023-06-22T09:55:20;28.30;97.10
45807;DHT22;31507;51.494;7.518;2023-06-22T09:57:46;27.90;97.90
45807;DHT22;31507;51.494;7.518;2023-06-22T10:00:12;27.80;98.90
45807;DHT22;31507;51.494;7.518;2023-06-22T10:02:39;27.90;99.10
45807;DHT22;31507;51.494;7.518;2023-06-22T10:05:05;27.90;99.40
45807;DHT22;31507;51.494;7.518;2023-06-22T10:07:33;28.00;99.50
45807;DHT22;31507;51.494;7.518;2023-06-22T10:09:58;28.00;99.90
45807;DHT22;31507;51.494;7.518;2023-06-22T10:12:25;28.10;99.90
45807;DHT22;31507;51.494;7.518;2023-06-22T10:14:50;28.40;99.80
45807;DHT22;31507;51.494;7.518;2023-06-22T10:17:16;28.70;99.30
45807;DHT22;31507;51.494;7.518;2023-06-22T10:19:42;29.00;98.90
45807;DHT22;31507;51.494;7.518;2023-06-22T10:22:07;29.10;98.00
45807;DHT22;31507;51.494;7.518;2023-06-22T10:24:33;28.90;98.30
45807;DHT22;31507;51.494;7.518;2023-06-22T10:26:58;28.60;98.30
45807;DHT22;31507;51.494;7.518;2023-06-22T10:29:24;28.40;99.50
45807;DHT22;31507;51.494;7.518;2023-06-22T10:31:50;28.40;99.70
45807;DHT22;31507;51.494;7.518;2023-06-22T10:34:15;28.40;99.50
45807;DHT22;31507;51.494;7.518;2023-06-22T10:36:41;28.60;99.00
45807;DHT22;31507;51.494;7.518;2023-06-22T10:39:07;28.80;98.60
45807;DHT22;31507;51.494;7.518;2023-06-22T10:41:32;28.70;98.10
45807;DHT22;31507;51.494;7.518;2023-06-22T10:43:58;28.70;98.10
45807;DHT22;31507;51.494;7.518;2023-06-22T10:46:26;28.70;97.50
45807;DHT22;31507;51.494;7.518;2023-06-22T10:48:53;28.70;98.30
45807;DHT22;31507;51.494;7.518;2023-06-22T10:51:20;28.60;98.60
45807;DHT22;31507;51.494;7.518;2023-06-22T10:53:46;28.30;98.80
45807;DHT22;31507;51.494;7.518;2023-06-22T10:56:11;28.00;99.40
45807;DHT22;31507;51.494;7.518;2023-06-22T10:58:37;27.90;99.90
45807;DHT22;31507;51.494;7.518;2023-06-22T11:01:03;27.90;99.90
45807;DHT22;31507;51.494;7.518;2023-06-22T11:03:28;27.80;99.90
45807;DHT22;31507;51.494;7.518;2023-06-22T11:05:54;27.70;99.90
45807;DHT22;31507;51.494;7.518;2023-06-22T11:08:20;27.50;99.90
45807;DHT22;31507;51.494;7.518;2023-06-22T11:10:45;27.30;99.90
45807;DHT22;31507;51.494;7.518;2023-06-22T11:13:11;27.10;99.90
45807;DHT22;31507;51.494;7.518;2023-06-22T11:15:38;26.80;99.90
45807;DHT22;31507;51.494;7.518;2023-06-22T11:18:03;26.50;99.90
45807;DHT22;31507;51.494;7.518;2023-06-22T11:20:30;26.10;99.90
45807;DHT22;31507;51.494;7.518;2023-06-22T11:22:56;25.60;99.90
45807;DHT22;31507;51.494;7.518;2023-06-22T11:25:22;25.10;99.90
45807;DHT22;31507;51.494;7.518;2023-06-22T11:27:48;24.60;99.90
45807;DHT22;31507;51.494;7.518;2023-06-22T11:30:13;24.20;99.90
45807;DHT22;31507;51.494;7.518;2023-06-22T11:32:39;23.70;99.90
45807;DHT22;31507;51.494;7.518;2023-06-22T11:35:05;23.40;99.90
45807;DHT22;31507;51.494;7.518;2023-06-22T11:37:30;23.10;99.90
45807;DHT22;31507;51.494;7.518;2023-06-22T11:39:56;22.80;99.90
45807;DHT22;31507;51.494;7.518;2023-06-22T11:42:21;22.50;99.90
45807;DHT22;31507;51.494;7.518;2023-06-22T11:44:49;22.30;99.90
45807;DHT22;31507;51.494;7.518;2023-06-22T11:47:14;22.20;99.90
45807;DHT22;31507;51.494;7.518;2023-06-22T11:49:41;22.10;99.90
45807;DHT22;31507;51.494;7.518;2023-06-22T11:52:06;21.90;99.90
45807;DHT22;31507;51.494;7.518;2023-06-22T11:54:32;21.80;99.90
45807;DHT22;31507;51.494;7.518;2023-06-22T11:56:57;21.80;99.90
45807;DHT22;31507;51.494;7.518;2023-06-22T11:59:23;21.70;99.90
45807;DHT22;31507;51.494;7.518;2023-06-22T12:01:49;21.70;99.90
45807;DHT22;31507;51.494;7.518;2023-06-22T12:04:16;21.60;99.90
45807;DHT22;31507;51.494;7.518;2023-06-22T12:06:42;21.60;99.90
45807;DHT22;31507;51.494;7.518;2023-06-22T12:09:09;21.50;99.90
45807;DHT22;31507;51.494;7.518;2023-06-22T12:11:35;21.40;99.90
45807;DHT22;31507;51.494;7.518;2023-06-22T12:14:00;21.40;99.90
45807;DHT22;31507;51.494;7.518;2023-06-22T12:16:30;21.30;99.90
45807;DHT22;31507;51.494;7.518;2023-06-22T12:18:56;21.30;99.90
45807;DHT22;31507;51.494;7.518;2023-06-22T12:21:21;21.30;99.90
45807;DHT22;31507;51.494;7.518;2023-06-22T12:23:47;21.30;99.90
45807;DHT22;31507;51.494;7.518;2023-06-22T12:26:13;21.20;99.90
45807;DHT22;31507;51.494;7.518;2023-06-22T12:28:38;21.10;99.90
45807;DHT22;31507;51.494;7.518;2023-06-22T12:31:04;21.10;99.90
45807;DHT22;31507;51.494;7.518;2023-06-22T12:33:29;21.10;99.90
45807;DHT22;31507;51.494;7.518;2023-06-22T12:35:56;21.10;99.90
45807;DHT22;31507;51.494;7.518;2023-06-22T12:38:22;21.00;99.90
45807;DHT22;31507;51.494;7.518;2023-06-22T12:40:47;21.00;99.90
45807;DHT22;31507;51.494;7.518;2023-06-22T12:43:17;21.00;99.90
45807;DHT22;31507;51.494;7.518;2023-06-22T12:46:03;21.00;99.90
45807;DHT22;31507;51.494;7.518;2023-06-22T12:48:28;21.00;99.90
45807;DHT22;31507;51.494;7.518;2023-06-22T12:50:54;21.00;99.90
45807;DHT22;31507;51.494;7.518;2023-06-22T12:53:20;20.90;99.90
45807;DHT22;31507;51.494;7.518;2023-06-22T12:55:48;20.80;99.90
45807;DHT22;31507;51.494;7.518;2023-06-22T12:58:13;20.80;99.90
45807;DHT22;31507;51.494;7.518;2023-06-22T13:00:39;20.80;99.90
45807;DHT22;31507;51.494;7.518;2023-06-22T13:03:05;21.00;99.90
45807;DHT22;31507;51.494;7.518;2023-06-22T13:05:31;21.40;99.90
45807;DHT22;31507;51.494;7.518;2023-06-22T13:07:56;21.80;99.90
45807;DHT22;31507;51.494;7.518;2023-06-22T13:10:23;22.30;99.90
45807;DHT22;31507;51.494;7.518;2023-06-22T13:12:48;22.60;99.90
45807;DHT22;31507;51.494;7.518;2023-06-22T13:15:14;22.70;99.90
45807;DHT22;31507;51.494;7.518;2023-06-22T13:17:40;22.80;99.90
45807;DHT22;31507;51.494;7.518;2023-06-22T13:20:06;22.80;99.90
45807;DHT22;31507;51.494;7.518;2023-06-22T13:22:35;22.90;99.90
45807;DHT22;31507;51.494;7.518;2023-06-22T13:25:06;23.00;99.90
45807;DHT22;31507;51.494;7.518;2023-06-22T13:27:31;23.10;99.90
45807;DHT22;31507;51.494;7.518;2023-06-22T13:29:57;23.30;99.90
45807;DHT22;31507;51.494;7.518;2023-06-22T13:32:23;23.10;99.90
45807;DHT22;31507;51.494;7.518;2023-06-22T13:34:48;23.10;99.90
45807;DHT22;31507;51.494;7.518;2023-06-22T13:37:14;23.10;99.90
45807;DHT22;31507;51.494;7.518;2023-06-22T13:39:40;23.40;99.90
45807;DHT22;31507;51.494;7.518;2023-06-22T13:42:06;23.80;99.90
45807;DHT22;31507;51.494;7.518;2023-06-22T13:44:31;24.20;99.90
45807;DHT22;31507;51.494;7.518;2023-06-22T13:46:57;24.70;99.90
45807;DHT22;31507;51.494;7.518;2023-06-22T13:49:23;25.10;99.90
45807;DHT22;31507;51.494;7.518;2023-06-22T13:51:48;25.30;99.90
45807;DHT22;31507;51.494;7.518;2023-06-22T13:54:14;25.40;99.90
45807;DHT22;31507;51.494;7.518;2023-06-22T13:56:40;25.00;99.90
45807;DHT22;31507;51.494;7.518;2023-06-22T13:59:06;24.60;99.90
45807;DHT22;31507;51.494;7.518;2023-06-22T14:01:35;24.30;99.90
45807;DHT22;31507;51.494;7.518;2023-06-22T14:04:01;23.90;99.90
45807;DHT22;31507;51.494;7.518;2023-06-22T14:06:27;23.90;99.90
45807;DHT22;31507;51.494;7.518;2023-06-22T14:08:53;23.90;99.90
45807;DHT22;31507;51.494;7.518;2023-06-22T14:11:19;23.90;99.90
45807;DHT22;31507;51.494;7.518;2023-06-22T14:13:44;23.90;99.90
45807;DHT22;31507;51.494;7.518;2023-06-22T14:16:10;23.80;99.90
45807;DHT22;31507;51.494;7.518;2023-06-22T14:18:36;23.70;99.90
45807;DHT22;31507;51.494;7.518;2023-06-22T14:21:02;23.50;99.90
45807;DHT22;31507;51.494;7.518;2023-06-22T14:23:27;23.50;99.90
45807;DHT22;31507;51.494;7.518;2023-06-22T14:25:53;23.40;99.90
45807;DHT22;31507;51.494;7.518;2023-06-22T14:28:18;23.50;99.90
45807;DHT22;31507;51.494;7.518;2023-06-22T14:30:44;23.60;99.90
45807;DHT22;31507;51.494;7.518;2023-06-22T14:33:10;23.80;99.90
45807;DHT22;31507;51.494;7.518;2023-06-22T14:35:36;24.00;99.90
45807;DHT22;31507;51.494;7.518;2023-06-22T14:38:01;24.10;99.90
45807;DHT22;31507;51.494;7.518;2023-06-22T14:40:27;24.10;99.90
45807;DHT22;31507;51.494;7.518;2023-06-22T14:42:53;24.00;99.90
45807;DHT22;31507;51.494;7.518;2023-06-22T14:45:18;23.90;99.90
45807;DHT22;31507;51.494;7.518;2023-06-22T14:47:44;23.90;99.90
45807;DHT22;31507;51.494;7.518;2023-06-22T14:50:09;23.80;99.90
45807;DHT22;31507;51.494;7.518;2023-06-22T14:52:35;23.80;99.90
45807;DHT22;31507;51.494;7.518;2023-06-22T14:55:01;23.70;99.90
45807;DHT22;31507;51.494;7.518;2023-06-22T14:57:26;23.60;99.90
45807;DHT22;31507;51.494;7.518;2023-06-22T14:59:52;23.50;99.90
45807;DHT22;31507;51.494;7.518;2023-06-22T15:02:17;23.50;99.90
45807;DHT22;31507;51.494;7.518;2023-06-22T15:04:43;23.50;99.90
45807;DHT22;31507;51.494;7.518;2023-06-22T15:07:09;24.00;99.90
45807;DHT22;31507;51.494;7.518;2023-06-22T15:09:34;24.50;99.90
45807;DHT22;31507;51.494;7.518;2023-06-22T15:12:00;24.70;99.90
45807;DHT22;31507;51.494;7.518;2023-06-22T15:14:28;24.80;99.90
45807;DHT22;31507;51.494;7.518;2023-06-22T15:16:55;24.90;99.90
45807;DHT22;31507;51.494;7.518;2023-06-22T15:19:20;24.80;99.90
45807;DHT22;31507;51.494;7.518;2023-06-22T15:21:46;24.50;99.90
45807;DHT22;31507;51.494;7.518;2023-06-22T15:24:11;24.30;99.90
45807;DHT22;31507;51.494;7.518;2023-06-22T15:26:37;24.10;99.90
45807;DHT22;31507;51.494;7.518;2023-06-22T15:29:03;23.80;99.90
45807;DHT22;31507;51.494;7.518;2023-06-22T15:31:29;23.50;99.90
45807;DHT22;31507;51.494;7.518;2023-06-22T15:33:55;23.30;99.90
45807;DHT22;31507;51.494;7.518;2023-06-22T15:36:21;23.10;99.90